Time;durP1;ratioP1;P1;durP2;ratioP2;P2;SDS_P1;SDS_P2;PMS_P1;PMS_P2;Temp;Humidity;BMP_temperature;BMP_pressure;BME280_temperature;BME280_humidity;BME280_pressure;Samples;Min_cycle;Max_cycle;Signal;HPM_P1;HPM_P2
2022/10/05 04:41:48;;;;;;;23.97;22.30;;;9.00;99.90;;;;;;6045480;23;20407;-75
2022/10/05 04:44:44;;;;;;;25.30;23.70;;;9.00;99.90;;;;;;4989668;28;20447;-75
2022/10/05 04:47:22;;;;;;;25.03;22.80;;;9.00;99.90;;;;;;4991027;28;20936;-73
2022/10/05 04:50:11;;;;;;;24.17;22.57;;;8.90;99.90;;;;;;4990565;28;20466;-73
2022/10/05 04:52:49;;;;;;;27.90;25.40;;;8.90;99.90;;;;;;4990489;28;21024;-75
2022/10/05 04:55:24;;;;;;;25.97;24.40;;;9.00;99.90;;;;;;4990168;28;20450;-74
2022/10/05 04:58:01;;;;;;;27.10;25.00;;;8.90;99.90;;;;;;4989683;28;20453;-72
2022/10/05 05:00:33;;;;;;;27.57;25.43;;;8.90;99.90;;;;;;4990028;28;20455;-73
2022/10/05 05:03:19;;;;;;;30.30;28.20;;;8.90;99.90;;;;;;4989915;28;20932;-73
2022/10/05 05:05:52;;;;;;;27.83;25.80;;;9.00;99.90;;;;;;4989986;28;20443;-74
2022/10/05 05:08:39;;;;;;;29.90;27.37;;;9.00;99.90;;;;;;4989598;28;20834;-75
2022/10/05 05:11:27;;;;;;;28.40;26.30;;;8.90;99.90;;;;;;4989790;28;20811;-76
2022/10/05 05:14:27;;;;;;;26.97;25.10;;;8.90;99.90;;;;;;4990037;28;20458;-74
2022/10/05 05:17:08;;;;;;;30.70;28.27;;;8.90;99.90;;;;;;4990038;28;20446;-74
2022/10/05 05:19:43;;;;;;;28.57;26.37;;;8.80;99.90;;;;;;4989742;28;20454;-74
2022/10/05 05:22:21;;;;;;;28.47;26.47;;;8.90;99.90;;;;;;4989960;28;20478;-75
2022/10/05 05:24:59;;;;;;;31.20;28.87;;;8.80;99.90;;;;;;4989601;28;20570;-76
2022/10/05 05:27:40;;;;;;;29.77;27.47;;;8.80;99.90;;;;;;4989609;28;20438;-74
2022/10/05 05:30:21;;;;;;;29.03;26.90;;;8.80;99.90;;;;;;4989806;28;20458;-76
2022/10/05 05:33:19;;;;;;;31.70;29.10;;;8.80;99.90;;;;;;4989442;28;20446;-75
2022/10/05 05:36:23;;;;;;;31.10;28.70;;;8.90;99.90;;;;;;4973815;28;20471;-75
2022/10/05 05:39:00;;;;;;;33.13;30.53;;;8.80;99.90;;;;;;4987801;28;20447;-74
2022/10/05 05:41:35;;;;;;;34.90;31.93;;;8.90;99.90;;;;;;4988671;28;20841;-74
2022/10/05 05:44:17;;;;;;;34.50;31.03;;;8.90;99.90;;;;;;4988584;28;21043;-76
2022/10/05 05:46:51;;;;;;;33.37;30.63;;;8.90;99.90;;;;;;4987755;28;20461;-75
2022/10/05 05:49:22;;;;;;;37.43;34.43;;;8.90;99.90;;;;;;4991624;28;20494;-76
2022/10/05 05:51:54;;;;;;;39.47;35.97;;;8.90;99.90;;;;;;4993028;28;20455;-77
2022/10/05 05:54:26;;;;;;;37.50;34.13;;;9.00;99.90;;;;;;4993181;28;20446;-76
2022/10/05 05:56:58;;;;;;;36.43;33.20;;;9.00;99.90;;;;;;4993308;28;20790;-74
2022/10/05 05:59:30;;;;;;;35.67;32.40;;;9.00;99.90;;;;;;4993470;28;20473;-76
2022/10/05 06:02:22;;;;;;;34.70;31.70;;;9.00;99.90;;;;;;4992257;28;20968;-74
2022/10/05 06:04:53;;;;;;;37.03;33.80;;;9.00;99.90;;;;;;4986257;28;20461;-73
2022/10/05 06:07:27;;;;;;;44.03;40.30;;;9.00;99.90;;;;;;4991617;28;20458;-74
2022/10/05 06:10:03;;;;;;;39.47;36.10;;;9.10;99.90;;;;;;4993030;28;20494;-75
2022/10/05 06:12:33;;;;;;;42.83;39.30;;;9.20;99.90;;;;;;4990663;28;20556;-75
2022/10/05 06:15:04;;;;;;;35.90;32.17;;;9.50;99.90;;;;;;4992863;28;20987;-74
2022/10/05 06:17:37;;;;;;;31.17;28.73;;;9.60;99.90;;;;;;4990784;28;20462;-74
2022/10/05 06:20:14;;;;;;;31.37;28.90;;;9.70;99.90;;;;;;4992559;28;20447;-74
2022/10/05 06:22:45;;;;;;;28.40;26.40;;;9.90;99.90;;;;;;4992670;28;20963;-75
2022/10/05 06:25:25;;;;;;;27.03;24.73;;;10.00;99.90;;;;;;4992528;28;20453;-75
2022/10/05 06:28:08;;;;;;;26.80;24.20;;;10.20;99.90;;;;;;4992757;28;20447;-75
2022/10/05 06:30:44;;;;;;;25.10;23.20;;;10.60;99.90;;;;;;4992992;28;20459;-74
2022/10/05 06:33:24;;;;;;;24.57;22.40;;;10.90;99.90;;;;;;4993048;28;20553;-73
2022/10/05 06:36:00;;;;;;;23.27;21.70;;;11.30;99.90;;;;;;4992390;28;20458;-75
2022/10/05 06:39:00;;;;;;;22.47;20.20;;;11.50;99.90;;;;;;4992544;28;20446;-73
2022/10/05 06:41:41;;;;;;;22.03;20.43;;;11.70;99.90;;;;;;4992197;28;20469;-72
2022/10/05 06:44:14;;;;;;;18.40;17.10;;;11.80;99.90;;;;;;4992208;28;20438;-74
2022/10/05 06:46:50;;;;;;;18.50;17.27;;;12.10;99.90;;;;;;4992286;28;20464;-72
2022/10/05 06:49:23;;;;;;;18.43;17.33;;;12.20;99.90;;;;;;4991997;28;20852;-73
2022/10/05 06:51:55;;;;;;;18.17;16.83;;;12.30;99.90;;;;;;4991892;28;20454;-72
2022/10/05 06:54:47;;;;;;;20.33;18.87;;;12.30;99.90;;;;;;4992127;28;20809;-73
2022/10/05 06:57:29;;;;;;;21.47;19.77;;;12.30;99.90;;;;;;4991627;28;20815;-72
2022/10/05 07:00:01;;;;;;;26.87;24.30;;;12.40;99.90;;;;;;4991563;28;20948;-72
2022/10/05 07:02:36;;;;;;;23.33;21.07;;;12.60;99.90;;;;;;4991580;28;20451;-72
2022/10/05 07:05:45;;;;;;;19.13;17.70;;;12.90;99.90;;;;;;4991446;28;20587;-73
2022/10/05 07:08:20;;;;;;;19.70;18.07;;;13.20;99.90;;;;;;4991717;28;20443;-72
2022/10/05 07:10:58;;;;;;;18.63;17.53;;;13.20;99.90;;;;;;4991380;28;20450;-72
2022/10/05 07:13:46;;;;;;;19.73;18.37;;;13.50;99.90;;;;;;4991804;28;20459;-72
2022/10/05 07:16:23;;;;;;;19.57;17.97;;;13.80;99.90;;;;;;4991559;28;20808;-72
2022/10/05 07:19:02;;;;;;;19.70;18.27;;;13.90;99.90;;;;;;4991316;28;20461;-73
2022/10/05 07:21:38;;;;;;;18.93;17.60;;;13.90;99.90;;;;;;4991566;28;20454;-71
2022/10/05 07:24:21;;;;;;;16.97;15.97;;;14.20;99.90;;;;;;4991279;28;20886;-73
2022/10/05 07:26:56;;;;;;;17.70;16.40;;;14.50;99.90;;;;;;4991024;28;20466;-73
2022/10/05 07:29:29;;;;;;;16.27;15.10;;;14.70;99.90;;;;;;4991500;28;20488;-72
2022/10/05 07:32:08;;;;;;;18.53;17.20;;;15.00;99.90;;;;;;4991066;28;20553;-73
2022/10/05 07:34:46;;;;;;;18.70;17.67;;;15.00;99.90;;;;;;4991426;28;20454;-73
2022/10/05 07:40:12;;;;;;;17.63;16.60;;;15.20;99.90;;;;;;4977310;28;20497;-73
2022/10/05 07:42:55;;;;;;;18.40;17.10;;;15.20;99.90;;;;;;4991921;28;20478;-73
2022/10/05 07:45:28;;;;;;;22.00;20.30;;;15.30;99.90;;;;;;4991091;28;20508;-73
2022/10/05 07:47:56;;;;;;;19.00;17.53;;;15.00;99.90;;;;;;4989795;28;20451;-73
2022/10/05 07:50:28;;;;;;;18.10;17.00;;;15.00;99.90;;;;;;4991129;28;20512;-73
2022/10/05 07:52:57;;;;;;;18.30;17.10;;;15.30;99.90;;;;;;4989319;28;20821;-72
2022/10/05 07:55:31;;;;;;;17.37;16.40;;;15.60;99.90;;;;;;4987598;28;20534;-72
2022/10/05 07:58:08;;;;;;;17.40;16.17;;;15.80;99.90;;;;;;4988796;28;20454;-72
2022/10/05 08:01:00;;;;;;;17.57;16.57;;;16.20;99.90;;;;;;4990557;28;20795;-73
2022/10/05 08:03:37;;;;;;;16.53;15.63;;;16.50;99.90;;;;;;4989278;28;20462;-72
2022/10/05 08:06:05;;;;;;;18.57;17.23;;;17.00;99.90;;;;;;4990622;28;20447;-73
2022/10/05 08:08:44;;;;;;;16.80;15.90;;;17.20;99.90;;;;;;4990016;28;20482;-72
2022/10/05 08:11:15;;;;;;;16.67;15.47;;;17.20;99.90;;;;;;4989528;28;20446;-72
2022/10/05 08:13:51;;;;;;;16.97;15.70;;;16.90;99.90;;;;;;4990078;28;20451;-74
2022/10/05 08:16:19;;;;;;;17.47;16.27;;;17.30;99.90;;;;;;4990093;28;20454;-74
2022/10/05 08:18:55;;;;;;;17.93;16.63;;;17.70;99.90;;;;;;4989886;28;20446;-72
2022/10/05 08:21:27;;;;;;;16.00;14.87;;;17.90;99.90;;;;;;4990174;28;20501;-74
2022/10/05 08:23:57;;;;;;;16.40;15.50;;;18.10;99.90;;;;;;4990363;28;20458;-73
2022/10/05 08:26:34;;;;;;;16.50;15.57;;;18.70;99.90;;;;;;4990331;28;20457;-72
2022/10/05 08:29:12;;;;;;;16.60;15.40;;;19.30;99.90;;;;;;4989842;28;20747;-74
2022/10/05 08:31:41;;;;;;;16.50;15.30;;;19.70;99.90;;;;;;4990464;28;20513;-73
2022/10/05 08:34:20;;;;;;;17.03;16.03;;;19.80;99.90;;;;;;4990009;28;20943;-73
2022/10/05 08:36:58;;;;;;;17.53;16.43;;;19.50;99.90;;;;;;4989246;28;20454;-74
2022/10/05 08:39:28;;;;;;;16.40;15.57;;;19.50;99.90;;;;;;4989623;28;20761;-74
2022/10/05 08:42:12;;;;;;;17.13;15.87;;;19.80;99.90;;;;;;4989265;28;20482;-73
2022/10/05 08:45:16;;;;;;;15.43;14.53;;;19.40;99.90;;;;;;4989766;28;20454;-73
2022/10/05 08:48:18;;;;;;;16.53;15.43;;;19.80;99.90;;;;;;4989395;28;20454;-73
2022/10/05 08:51:07;;;;;;;16.57;15.63;;;20.30;99.90;;;;;;4985219;28;20490;-74
2022/10/05 08:53:58;;;;;;;16.90;16.03;;;20.30;99.90;;;;;;4988948;28;20770;-74
2022/10/05 08:56:34;;;;;;;17.70;16.77;;;20.30;99.90;;;;;;4989001;28;20457;-73
2022/10/05 08:59:21;;;;;;;18.10;16.90;;;20.00;99.90;;;;;;4988755;28;20836;-73
2022/10/05 09:02:17;;;;;;;16.90;16.00;;;20.70;99.90;;;;;;4987958;28;20490;-73
2022/10/05 09:05:10;;;;;;;18.50;17.30;;;21.10;99.90;;;;;;4988719;28;20455;-73
2022/10/05 09:07:58;;;;;;;17.10;16.20;;;21.00;99.90;;;;;;4988782;28;20454;-74
2022/10/05 09:10:48;;;;;;;19.00;18.00;;;21.20;99.90;;;;;;4988817;28;20483;-73
2022/10/05 09:13:43;;;;;;;18.70;17.60;;;21.20;99.90;;;;;;4988827;28;20466;-73
2022/10/05 09:16:34;;;;;;;17.83;16.73;;;21.60;99.20;;;;;;4989110;28;20450;-73
2022/10/05 09:19:31;;;;;;;18.53;17.43;;;21.90;99.10;;;;;;4988767;28;20476;-74
2022/10/05 09:22:03;;;;;;;18.87;17.47;;;22.20;98.20;;;;;;4988689;28;20447;-74
2022/10/05 09:24:45;;;;;;;16.57;15.47;;;22.40;97.70;;;;;;4992542;28;20458;-73
2022/10/05 09:27:15;;;;;;;17.60;16.30;;;22.30;97.80;;;;;;4992639;28;20457;-74
2022/10/05 09:30:17;;;;;;;18.33;17.13;;;22.30;98.10;;;;;;4992763;28;20486;-74
2022/10/05 09:33:24;;;;;;;16.20;15.10;;;22.30;97.60;;;;;;4992419;28;20454;-73
2022/10/05 09:36:17;;;;;;;16.27;15.57;;;22.40;98.20;;;;;;4992686;28;20457;-72
2022/10/05 09:39:22;;;;;;;17.10;15.60;;;22.90;97.30;;;;;;4992359;28;20450;-73
2022/10/05 09:42:21;;;;;;;16.63;15.53;;;23.10;96.80;;;;;;4991963;28;20479;-74
2022/10/05 09:45:28;;;;;;;15.77;14.77;;;23.50;96.20;;;;;;4992224;28;20457;-74
2022/10/05 09:48:30;;;;;;;17.23;15.20;;;23.00;96.90;;;;;;4989655;28;20461;-74
2022/10/05 09:51:50;;;;;;;16.63;14.80;;;23.30;96.60;;;;;;4983545;28;20485;-74
2022/10/05 09:54:48;;;;;;;15.13;14.33;;;23.20;97.00;;;;;;4992527;28;20462;-73
2022/10/05 09:57:44;;;;;;;15.73;15.03;;;23.40;96.70;;;;;;4992544;28;20454;-74
2022/10/05 10:00:27;;;;;;;17.73;16.57;;;23.60;96.30;;;;;;4993271;28;20765;-73
2022/10/05 10:03:23;;;;;;;16.50;15.60;;;23.80;96.10;;;;;;4992917;28;20465;-73
2022/10/05 10:06:24;;;;;;;17.17;16.17;;;23.60;96.30;;;;;;4992301;28;20455;-74
2022/10/05 10:09:14;;;;;;;16.20;15.10;;;23.70;96.40;;;;;;4992060;28;20952;-74
2022/10/05 10:11:53;;;;;;;17.23;16.00;;;23.50;97.20;;;;;;4992012;28;20923;-74
2022/10/05 10:14:53;;;;;;;16.87;15.60;;;24.00;96.40;;;;;;4991882;28;20442;-75
2022/10/05 10:18:01;;;;;;;15.57;14.87;;;24.10;96.10;;;;;;4992194;28;20450;-74
2022/10/05 10:20:44;;;;;;;15.87;14.97;;;24.20;95.90;;;;;;4981201;28;20459;-73
2022/10/05 10:23:28;;;;;;;15.53;14.73;;;24.20;95.80;;;;;;4991791;28;20457;-74
2022/10/05 10:26:31;;;;;;;16.17;15.27;;;24.20;95.70;;;;;;4991730;28;20462;-74
2022/10/05 10:29:20;;;;;;;15.83;14.93;;;24.30;95.80;;;;;;4991610;28;20450;-75
2022/10/05 10:31:58;;;;;;;16.30;15.50;;;24.60;95.60;;;;;;4991599;28;20719;-74
2022/10/05 10:34:44;;;;;;;14.90;14.10;;;25.30;94.80;;;;;;4991047;28;20817;-74
2022/10/05 10:38:01;;;;;;;15.73;14.97;;;25.60;93.60;;;;;;4991906;28;20450;-75
2022/10/05 10:40:38;;;;;;;15.60;14.63;;;25.60;93.50;;;;;;4969327;28;20482;-74
2022/10/05 10:43:31;;;;;;;16.73;15.33;;;25.20;94.00;;;;;;4969300;28;20494;-74
2022/10/05 10:46:09;;;;;;;17.10;16.10;;;25.10;94.50;;;;;;4984475;28;20462;-75
2022/10/05 10:48:56;;;;;;;17.43;16.47;;;25.90;93.70;;;;;;4991274;28;20450;-75
2022/10/05 10:51:50;;;;;;;16.13;15.27;;;26.20;92.40;;;;;;4991186;28;20494;-74
2022/10/05 10:54:35;;;;;;;18.30;17.10;;;26.50;92.10;;;;;;4991060;28;20575;-75
2022/10/05 10:57:08;;;;;;;18.50;17.40;;;26.40;91.80;;;;;;4991181;28;20447;-74
2022/10/05 11:00:26;;;;;;;15.37;14.50;;;26.00;92.40;;;;;;4991386;28;20451;-73
2022/10/05 11:03:10;;;;;;;15.23;14.50;;;26.10;92.40;;;;;;4991252;28;20442;-73
2022/10/05 11:06:10;;;;;;;15.50;14.70;;;26.80;91.60;;;;;;4991191;28;20454;-74
2022/10/05 11:09:30;;;;;;;16.03;15.23;;;26.50;91.60;;;;;;4979196;28;20458;-74
2022/10/05 11:12:26;;;;;;;14.83;13.77;;;26.00;92.20;;;;;;4969032;28;20451;-75
2022/10/05 11:15:04;;;;;;;14.27;13.70;;;26.20;92.60;;;;;;4990921;28;20438;-73
2022/10/05 11:17:50;;;;;;;14.13;13.57;;;26.50;92.10;;;;;;4990783;28;20517;-75
2022/10/05 11:20:33;;;;;;;14.93;14.10;;;26.40;91.60;;;;;;4990528;28;20446;-75
2022/10/05 11:23:36;;;;;;;14.20;13.60;;;26.30;92.30;;;;;;4990567;28;20450;-73
2022/10/05 11:26:23;;;;;;;14.23;13.63;;;26.50;91.60;;;;;;4984793;28;20490;-75
2022/10/05 11:29:23;;;;;;;15.10;14.43;;;26.30;92.10;;;;;;4990933;28;20458;-75
2022/10/05 11:32:34;;;;;;;14.27;13.67;;;26.10;92.60;;;;;;4986549;28;20458;-75
2022/10/05 11:35:39;;;;;;;15.83;14.83;;;26.10;92.70;;;;;;4990020;28;20991;-73
2022/10/05 11:38:26;;;;;;;14.60;13.67;;;26.60;92.20;;;;;;4958517;28;20883;-74
2022/10/05 11:41:26;;;;;;;13.97;13.27;;;26.90;91.50;;;;;;4990363;28;20467;-74
2022/10/05 11:44:41;;;;;;;13.63;13.10;;;27.10;91.60;;;;;;4990586;28;20443;-75
2022/10/05 11:47:18;;;;;;;16.03;14.80;;;27.70;90.70;;;;;;4990240;28;20899;-75
2022/10/05 11:49:52;;;;;;;13.87;13.17;;;27.70;90.50;;;;;;4989886;28;20526;-75
2022/10/05 11:52:24;;;;;;;13.10;12.50;;;27.30;90.70;;;;;;4989758;28;20501;-74
2022/10/05 11:55:23;;;;;;;14.60;13.90;;;27.60;89.70;;;;;;4989557;28;20443;-75
2022/10/05 11:57:53;;;;;;;14.00;13.50;;;28.50;89.00;;;;;;4968107;28;20547;-74
2022/10/05 12:00:22;;;;;;;14.23;13.53;;;29.70;82.90;;;;;;4985546;28;20824;-74
2022/10/05 12:03:18;;;;;;;14.07;13.33;;;29.30;82.20;;;;;;4989858;28;20442;-74
2022/10/05 12:06:04;;;;;;;13.60;13.00;;;29.50;81.10;;;;;;4987366;28;20469;-74
2022/10/05 12:08:40;;;;;;;14.33;13.83;;;30.50;76.60;;;;;;4989722;28;20443;-75
2022/10/05 12:11:29;;;;;;;13.47;13.00;;;30.70;74.20;;;;;;4989886;28;20494;-74
2022/10/05 12:14:02;;;;;;;13.87;13.27;;;30.50;74.50;;;;;;4989920;28;20450;-74
2022/10/05 12:16:37;;;;;;;15.20;14.50;;;31.00;73.00;;;;;;4989590;28;20455;-74
2022/10/05 12:19:12;;;;;;;12.13;11.73;;;31.80;71.10;;;;;;4989437;28;20947;-74
2022/10/05 12:21:44;;;;;;;14.67;13.97;;;32.00;69.40;;;;;;4989721;28;20452;-76
2022/10/05 12:24:17;;;;;;;14.97;14.47;;;33.00;66.60;;;;;;4989565;28;20446;-74
2022/10/05 12:26:49;;;;;;;15.47;14.70;;;33.70;63.80;;;;;;4989061;28;20451;-76
2022/10/05 12:29:22;;;;;;;15.57;14.97;;;34.10;61.00;;;;;;4989184;28;20459;-74
2022/10/05 12:31:57;;;;;;;16.63;15.47;;;34.20;61.30;;;;;;4989151;28;20537;-75
2022/10/05 12:34:43;;;;;;;15.07;14.57;;;34.20;60.00;;;;;;4989367;28;20811;-74
2022/10/05 12:37:16;;;;;;;14.77;14.27;;;33.90;60.50;;;;;;4989420;28;20488;-75
2022/10/05 12:39:51;;;;;;;14.73;14.10;;;34.50;65.80;;;;;;4988643;28;20474;-74
2022/10/05 12:42:26;;;;;;;16.23;15.30;;;34.50;59.30;;;;;;4988750;28;21021;-75
2022/10/05 12:45:08;;;;;;;15.13;14.53;;;34.40;59.40;;;;;;4989429;28;20451;-75
2022/10/05 12:47:47;;;;;;;14.07;13.57;;;32.80;60.10;;;;;;4988966;28;20529;-74
2022/10/05 12:50:20;;;;;;;13.53;13.00;;;31.60;62.70;;;;;;4988879;28;20446;-74
2022/10/05 12:53:04;;;;;;;13.57;13.17;;;30.30;65.40;;;;;;4988940;28;20455;-74
2022/10/05 12:55:38;;;;;;;13.17;12.57;;;29.80;68.00;;;;;;4988909;28;20450;-76
2022/10/05 12:58:20;;;;;;;13.10;12.70;;;29.90;67.20;;;;;;4988843;28;20457;-75
2022/10/05 13:00:52;;;;;;;12.67;12.17;;;29.70;66.70;;;;;;4989051;28;20494;-75
2022/10/05 13:03:25;;;;;;;13.40;12.80;;;29.50;68.00;;;;;;4988964;28;20455;-74
2022/10/05 13:06:03;;;;;;;13.30;12.80;;;29.80;64.60;;;;;;4989236;28;20903;-75
2022/10/05 13:08:38;;;;;;;12.50;12.10;;;29.30;64.70;;;;;;4988776;28;20509;-74
2022/10/05 13:11:12;;;;;;;13.30;12.80;;;28.90;63.40;;;;;;4988662;28;20442;-74
2022/10/05 13:13:49;;;;;;;13.30;12.53;;;28.70;63.20;;;;;;4989124;28;20928;-75
2022/10/05 13:16:25;;;;;;;12.40;12.00;;;28.20;60.70;;;;;;4988877;28;20446;-74
2022/10/05 13:19:02;;;;;;;13.30;12.70;;;28.30;60.70;;;;;;4989230;28;20457;-76
2022/10/05 13:21:37;;;;;;;12.07;11.67;;;28.40;60.10;;;;;;4988871;28;20482;-74
2022/10/05 13:24:09;;;;;;;12.57;12.17;;;28.40;60.70;;;;;;4989005;28;20469;-74
2022/10/05 13:26:40;;;;;;;12.50;12.10;;;28.10;61.10;;;;;;4989059;28;20454;-75
2022/10/05 13:29:18;;;;;;;15.00;13.23;;;28.00;60.40;;;;;;4989162;28;20826;-74
2022/10/05 13:31:48;;;;;;;12.00;11.60;;;27.90;59.50;;;;;;4988755;28;20466;-75
2022/10/05 13:34:27;;;;;;;13.30;12.53;;;27.50;59.60;;;;;;4988614;28;20530;-75
2022/10/05 13:37:05;;;;;;;14.73;13.43;;;27.00;60.50;;;;;;4989228;28;20473;-75
2022/10/05 13:39:44;;;;;;;11.90;11.50;;;26.70;62.10;;;;;;4988563;28;20481;-76
2022/10/05 13:42:15;;;;;;;12.43;11.80;;;26.40;63.30;;;;;;4988506;28;20490;-76
2022/10/05 13:44:49;;;;;;;12.07;11.67;;;26.20;64.60;;;;;;4988598;28;20465;-74
2022/10/05 13:47:25;;;;;;;12.53;11.93;;;26.10;64.30;;;;;;4988548;28;20473;-75
2022/10/05 13:49:57;;;;;;;11.53;10.50;;;25.90;65.60;;;;;;4988812;28;20457;-76
2022/10/05 13:52:36;;;;;;;11.27;10.90;;;25.80;64.70;;;;;;4988979;28;20454;-76
2022/10/05 13:55:14;;;;;;;11.67;11.27;;;25.80;64.50;;;;;;4988616;28;20459;-75
2022/10/05 13:57:51;;;;;;;11.43;11.03;;;25.80;63.80;;;;;;4988880;28;20459;-76
2022/10/05 14:00:20;;;;;;;12.10;11.50;;;25.80;64.50;;;;;;4988624;28;20747;-76
2022/10/05 14:02:50;;;;;;;11.87;11.47;;;25.70;64.50;;;;;;4988582;28;20984;-76
2022/10/05 14:05:19;;;;;;;11.20;10.80;;;25.70;64.80;;;;;;4988559;28;20458;-74
2022/10/05 14:07:53;;;;;;;11.13;10.73;;;25.70;64.60;;;;;;4988190;28;20459;-76
2022/10/05 14:10:34;;;;;;;11.80;11.40;;;25.60;65.20;;;;;;4990179;28;20465;-76
2022/10/05 14:13:09;;;;;;;11.40;11.10;;;25.60;65.70;;;;;;4991958;28;20477;-76
2022/10/05 14:15:35;;;;;;;11.40;11.10;;;25.60;65.60;;;;;;4991831;28;20460;-76
2022/10/05 14:18:22;;;;;;;11.70;11.30;;;25.60;66.00;;;;;;4991856;28;20458;-76
2022/10/05 14:21:01;;;;;;;11.87;11.47;;;25.50;65.70;;;;;;4991583;28;20490;-76
2022/10/05 14:23:29;;;;;;;12.10;11.60;;;25.50;66.50;;;;;;4991667;28;20454;-76
2022/10/05 14:25:56;;;;;;;11.27;10.87;;;25.40;67.20;;;;;;4991836;28;20442;-76
2022/10/05 14:28:28;;;;;;;12.43;11.90;;;25.40;67.80;;;;;;4991961;28;20542;-76
2022/10/05 14:30:59;;;;;;;12.00;11.60;;;25.30;68.80;;;;;;4991810;28;20446;-75
2022/10/05 14:33:28;;;;;;;11.47;11.07;;;25.30;68.70;;;;;;4991633;28;20450;-75
2022/10/05 14:35:56;;;;;;;11.37;10.77;;;25.30;69.00;;;;;;4991926;28;20457;-75
2022/10/05 14:38:27;;;;;;;12.30;11.80;;;25.20;68.90;;;;;;4992321;28;20455;-75
2022/10/05 14:41:15;;;;;;;12.50;11.90;;;25.20;69.40;;;;;;4992272;28;20905;-75
2022/10/05 14:43:50;;;;;;;12.60;12.10;;;25.20;69.10;;;;;;4992334;28;20455;-74
2022/10/05 14:46:23;;;;;;;12.50;12.10;;;25.30;69.00;;;;;;4991939;28;20446;-74
2022/10/05 14:49:01;;;;;;;12.70;12.20;;;25.20;67.90;;;;;;4992019;28;20454;-75
2022/10/05 14:51:31;;;;;;;12.00;11.40;;;25.10;68.20;;;;;;4991856;28;20446;-76
2022/10/05 14:54:00;;;;;;;10.97;10.57;;;25.10;68.30;;;;;;4991979;28;20821;-75
2022/10/05 14:56:46;;;;;;;12.07;11.67;;;25.10;68.60;;;;;;4991986;28;20478;-76
2022/10/05 14:59:42;;;;;;;12.00;11.60;;;25.10;68.40;;;;;;4991714;28;20462;-74
2022/10/05 15:02:54;;;;;;;11.97;11.57;;;25.20;69.40;;;;;;5086631;27;20550;-75
2022/10/05 15:05:30;;;;;;;12.83;12.40;;;25.10;69.10;;;;;;5086686;28;20446;-75
2022/10/05 15:08:02;;;;;;;12.00;11.60;;;25.10;67.80;;;;;;5086675;28;20454;-74
2022/10/05 15:10:36;;;;;;;11.70;11.30;;;25.00;66.70;;;;;;5086223;28;20447;-71
2022/10/05 15:13:11;;;;;;;11.33;10.87;;;25.00;67.70;;;;;;5083975;28;20453;-72
2022/10/05 15:15:46;;;;;;;11.90;11.47;;;24.90;67.40;;;;;;5086097;28;20442;-73
2022/10/05 15:18:25;;;;;;;12.07;11.67;;;24.90;67.90;;;;;;5086105;28;20478;-72
2022/10/05 15:21:11;;;;;;;12.50;11.90;;;24.90;68.90;;;;;;5080458;28;21059;-72
2022/10/05 15:23:46;;;;;;;12.73;12.20;;;24.90;67.90;;;;;;5086056;28;20465;-73
2022/10/05 15:26:28;;;;;;;13.20;12.80;;;24.90;68.00;;;;;;5086069;28;20461;-73
2022/10/05 15:29:01;;;;;;;12.23;11.73;;;24.90;67.40;;;;;;5084219;28;20465;-73
2022/10/05 15:31:38;;;;;;;12.47;12.07;;;25.00;68.50;;;;;;5085521;28;20462;-72
2022/10/05 15:34:14;;;;;;;12.00;11.50;;;24.90;68.50;;;;;;5085495;28;20940;-72
2022/10/05 15:36:46;;;;;;;12.10;11.60;;;24.90;68.70;;;;;;5085842;28;20572;-72
2022/10/05 15:39:20;;;;;;;11.40;11.00;;;24.80;69.70;;;;;;5065258;28;20509;-73
2022/10/05 15:41:59;;;;;;;12.83;12.33;;;24.70;71.00;;;;;;5065113;28;20491;-72
2022/10/05 15:44:38;;;;;;;13.07;12.50;;;24.60;72.30;;;;;;5071825;28;20883;-73
2022/10/05 15:47:09;;;;;;;12.47;12.07;;;24.50;72.50;;;;;;5085483;28;20477;-74
2022/10/05 15:49:46;;;;;;;12.33;11.90;;;24.40;73.70;;;;;;5085315;28;20790;-73
2022/10/05 15:52:22;;;;;;;12.23;11.80;;;24.30;74.90;;;;;;5085372;28;20434;-74
2022/10/05 15:55:21;;;;;;;13.43;12.90;;;24.20;76.90;;;;;;5085278;28;20531;-74
2022/10/05 15:57:58;;;;;;;14.13;13.53;;;24.10;77.30;;;;;;5080697;28;20459;-73
2022/10/05 16:00:26;;;;;;;13.73;12.93;;;24.00;78.30;;;;;;5085246;28;20569;-73
2022/10/05 16:03:04;;;;;;;14.30;13.37;;;23.90;79.90;;;;;;5085668;28;20448;-73
2022/10/05 16:08:53;;;;;;;13.77;12.77;;;23.60;81.00;;;;;;5085377;28;20938;-73
2022/10/05 16:11:30;;;;;;;12.30;11.90;;;23.50;81.30;;;;;;5084957;28;20438;-72
2022/10/05 16:14:07;;;;;;;11.93;11.50;;;23.40;77.60;;;;;;5071176;28;20447;-72
2022/10/05 16:16:45;;;;;;;13.43;12.60;;;23.40;76.60;;;;;;5071544;28;20446;-72
2022/10/05 16:19:19;;;;;;;12.33;11.60;;;23.30;76.10;;;;;;5071347;28;20443;-73
2022/10/05 16:21:56;;;;;;;12.43;11.97;;;23.20;75.40;;;;;;5070956;28;20508;-73
2022/10/05 16:24:50;;;;;;;11.53;10.90;;;23.20;75.70;;;;;;5071505;28;20542;-73
2022/10/05 16:27:23;;;;;;;12.47;11.67;;;23.10;76.10;;;;;;5069887;28;20743;-73
2022/10/05 16:29:57;;;;;;;13.27;12.57;;;23.00;76.60;;;;;;5070841;28;20455;-73
2022/10/05 16:32:29;;;;;;;12.10;11.70;;;22.90;77.50;;;;;;5071348;28;20443;-72
2022/10/05 16:35:07;;;;;;;12.20;11.80;;;22.70;77.80;;;;;;5069554;28;20516;-73
2022/10/05 16:37:46;;;;;;;11.63;11.23;;;22.70;78.10;;;;;;5071017;28;20956;-73
2022/10/05 16:40:20;;;;;;;11.83;11.33;;;22.50;78.60;;;;;;5071030;28;20471;-73
2022/10/05 16:42:59;;;;;;;12.20;11.67;;;22.40;79.50;;;;;;5070856;28;20481;-72
2022/10/05 16:45:43;;;;;;;12.53;12.03;;;22.30;79.80;;;;;;5071301;28;20462;-73
2022/10/05 16:48:15;;;;;;;11.67;11.17;;;22.10;81.40;;;;;;5070970;28;20454;-74
2022/10/05 16:50:54;;;;;;;11.80;11.40;;;21.90;83.00;;;;;;5071024;28;20455;-74
2022/10/05 16:53:28;;;;;;;12.97;12.47;;;21.70;85.50;;;;;;5070701;28;20454;-72
2022/10/05 16:56:01;;;;;;;12.50;11.90;;;21.50;88.50;;;;;;5071145;28;20460;-72
2022/10/05 16:58:38;;;;;;;13.07;12.23;;;21.30;89.70;;;;;;5070450;28;20470;-71
2022/10/05 17:01:19;;;;;;;13.00;12.37;;;21.30;91.30;;;;;;5070412;28;20498;-72
2022/10/05 17:04:02;;;;;;;13.17;12.50;;;21.10;93.30;;;;;;5070745;28;20448;-72
2022/10/05 17:07:11;;;;;;;13.60;12.97;;;20.90;94.00;;;;;;5070214;28;20459;-72
2022/10/05 17:10:06;;;;;;;13.07;12.37;;;20.70;95.80;;;;;;5034429;28;20478;-73
2022/10/05 17:12:50;;;;;;;14.67;13.73;;;20.50;97.70;;;;;;5070172;28;20447;-73
2022/10/05 17:15:32;;;;;;;14.60;13.50;;;20.20;98.60;;;;;;5070452;28;20453;-73
2022/10/05 17:18:28;;;;;;;15.47;14.27;;;20.10;99.90;;;;;;5070491;28;20443;-73
2022/10/05 17:21:04;;;;;;;19.97;18.30;;;20.00;99.90;;;;;;5070585;28;21065;-73
2022/10/05 17:23:53;;;;;;;12.80;12.07;;;19.90;99.90;;;;;;5069632;28;20521;-73
2022/10/05 17:26:55;;;;;;;12.90;12.30;;;19.70;99.90;;;;;;5070149;28;20451;-73
2022/10/05 17:29:29;;;;;;;13.87;12.40;;;19.60;99.90;;;;;;5008069;28;20453;-73
2022/10/05 17:32:01;;;;;;;14.30;13.40;;;19.40;99.90;;;;;;5060342;28;20975;-73
2022/10/05 17:34:33;;;;;;;14.40;13.70;;;19.30;99.90;;;;;;5070003;28;20443;-73
2022/10/05 17:37:17;;;;;;;16.17;14.80;;;19.20;99.90;;;;;;5070019;28;20506;-74
2022/10/05 17:39:49;;;;;;;15.47;14.53;;;19.10;99.90;;;;;;5069650;28;20442;-72
2022/10/05 17:42:47;;;;;;;14.90;13.67;;;18.90;99.90;;;;;;5067041;28;20520;-73
2022/10/05 17:45:51;;;;;;;14.53;13.33;;;18.80;99.90;;;;;;5066077;28;20481;-73
2022/10/05 17:48:36;;;;;;;15.10;14.00;;;18.60;99.90;;;;;;5069973;28;20521;-73
2022/10/05 17:57:16;;;;;;;17.97;16.37;;;18.30;99.90;;;;;;5050284;28;20493;-73
2022/10/05 17:59:55;;;;;;;17.10;16.07;;;18.10;99.90;;;;;;5049653;28;20844;-72
2022/10/05 18:02:37;;;;;;;15.73;14.63;;;17.90;99.90;;;;;;5049581;28;20479;-73
2022/10/05 18:05:16;;;;;;;16.63;15.40;;;17.90;99.90;;;;;;5049423;28;20475;-72
2022/10/05 18:07:47;;;;;;;16.20;14.90;;;17.80;99.90;;;;;;5049452;28;20447;-73
2022/10/05 18:10:26;;;;;;;16.40;15.30;;;17.80;99.90;;;;;;5049414;28;20487;-72
2022/10/05 18:13:19;;;;;;;15.73;14.60;;;17.70;99.90;;;;;;5049445;28;20468;-73
2022/10/05 18:15:51;;;;;;;16.20;15.00;;;17.60;99.90;;;;;;5049137;28;20965;-73
2022/10/05 18:18:53;;;;;;;15.87;14.67;;;17.50;99.90;;;;;;5061445;28;20450;-73
2022/10/05 18:21:29;;;;;;;13.33;12.37;;;17.50;99.90;;;;;;5068882;28;20497;-74
2022/10/05 18:24:21;;;;;;;13.07;12.17;;;17.90;99.90;;;;;;5068979;28;20450;-73
2022/10/05 18:26:58;;;;;;;13.40;12.60;;;18.20;99.90;;;;;;5068892;28;20655;-73
2022/10/05 18:32:34;;;;;;;12.43;11.57;;;18.30;99.90;;;;;;5069117;28;20557;-73
2022/10/05 18:35:10;;;;;;;13.07;12.47;;;18.50;99.90;;;;;;5068460;28;20451;-73